sensor_id;sensor_type;location;lat;lon;timestamp;pressure;altitude;pressure_sealevel;temperature;humidity
62248;BME280;48237;50.140;8.486;2023-02-11T00:00:32;101587.27;;;2.24;81.87
62248;BME280;48237;50.140;8.486;2023-02-11T00:02:58;101586.45;;;1.51;81.61
62248;BME280;48237;50.140;8.486;2023-02-11T00:05:25;101577.55;;;2.38;78.88
62248;BME280;48237;50.140;8.486;2023-02-11T00:07:53;101570.97;;;2.20;80.76
62248;BME280;48237;50.140;8.486;2023-02-11T00:10:21;101574.31;;;2.49;81.01
62248;BME280;48237;50.140;8.486;2023-02-11T00:12:48;101565.74;;;2.49;78.06
62248;BME280;48237;50.140;8.486;2023-02-11T00:15:15;101574.01;;;2.28;79.53
62248;BME280;48237;50.140;8.486;2023-02-11T00:17:43;101573.27;;;2.77;77.79
62248;BME280;48237;50.140;8.486;2023-02-11T00:20:10;101577.48;;;2.26;77.87
62248;BME280;48237;50.140;8.486;2023-02-11T00:22:38;101575.19;;;1.26;84.59
62248;BME280;48237;50.140;8.486;2023-02-11T00:25:05;101572.18;;;2.33;80.01
62248;BME280;48237;50.140;8.486;2023-02-11T00:27:32;101569.70;;;1.88;81.35
62248;BME280;48237;50.140;8.486;2023-02-11T00:29:59;101567.45;;;1.36;84.27
62248;BME280;48237;50.140;8.486;2023-02-11T00:32:26;101564.60;;;0.30;91.13
62248;BME280;48237;50.140;8.486;2023-02-11T00:34:54;101565.26;;;2.29;81.84
62248;BME280;48237;50.140;8.486;2023-02-11T00:37:20;101573.32;;;-1.01;98.88
62248;BME280;48237;50.140;8.486;2023-02-11T00:39:48;101565.29;;;0.62;91.52
62248;BME280;48237;50.140;8.486;2023-02-11T00:42:15;101563.53;;;0.30;95.12
62248;BME280;48237;50.140;8.486;2023-02-11T00:44:43;101557.61;;;0.15;94.63
62248;BME280;48237;50.140;8.486;2023-02-11T00:47:09;101558.16;;;1.68;85.86
62248;BME280;48237;50.140;8.486;2023-02-11T00:49:37;101560.10;;;2.36;81.96
62248;BME280;48237;50.140;8.486;2023-02-11T00:52:04;101562.51;;;2.86;78.38
62248;BME280;48237;50.140;8.486;2023-02-11T00:54:31;101570.28;;;-0.09;92.94
62248;BME280;48237;50.140;8.486;2023-02-11T00:56:58;101563.91;;;1.24;88.29
62248;BME280;48237;50.140;8.486;2023-02-11T00:59:26;101552.63;;;2.61;81.62
62248;BME280;48237;50.140;8.486;2023-02-11T01:01:53;101562.40;;;1.02;87.06
62248;BME280;48237;50.140;8.486;2023-02-11T01:04:21;101563.93;;;2.19;85.58
62248;BME280;48237;50.140;8.486;2023-02-11T01:06:48;101561.77;;;3.25;78.54
62248;BME280;48237;50.140;8.486;2023-02-11T01:09:15;101557.38;;;3.43;77.42
62248;BME280;48237;50.140;8.486;2023-02-11T01:11:42;101557.80;;;1.69;83.93
62248;BME280;48237;50.140;8.486;2023-02-11T01:14:09;101559.64;;;-0.11;91.50
62248;BME280;48237;50.140;8.486;2023-02-11T01:16:36;101555.27;;;-0.13;95.98
62248;BME280;48237;50.140;8.486;2023-02-11T01:19:04;101549.61;;;2.14;85.68
62248;BME280;48237;50.140;8.486;2023-02-11T01:21:31;101551.97;;;3.23;77.47
62248;BME280;48237;50.140;8.486;2023-02-11T01:23:59;101550.88;;;3.95;74.54
62248;BME280;48237;50.140;8.486;2023-02-11T01:26:26;101548.36;;;2.97;78.58
62248;BME280;48237;50.140;8.486;2023-02-11T01:28:53;101549.59;;;3.37;77.93
62248;BME280;48237;50.140;8.486;2023-02-11T01:31:20;101549.12;;;3.73;75.81
62248;BME280;48237;50.140;8.486;2023-02-11T01:33:47;101547.41;;;4.06;72.77
62248;BME280;48237;50.140;8.486;2023-02-11T01:36:14;101542.57;;;2.85;77.80
62248;BME280;48237;50.140;8.486;2023-02-11T01:38:41;101545.77;;;3.71;76.93
62248;BME280;48237;50.140;8.486;2023-02-11T01:41:10;101538.44;;;3.13;76.98
62248;BME280;48237;50.140;8.486;2023-02-11T01:43:45;101530.55;;;3.58;75.49
62248;BME280;48237;50.140;8.486;2023-02-11T01:46:22;101527.36;;;3.64;76.51
62248;BME280;48237;50.140;8.486;2023-02-11T01:48:54;101516.82;;;4.05;74.13
62248;BME280;48237;50.140;8.486;2023-02-11T01:51:25;101517.46;;;3.82;75.53
62248;BME280;48237;50.140;8.486;2023-02-11T01:53:54;101509.08;;;4.11;72.94
62248;BME280;48237;50.140;8.486;2023-02-11T01:56:25;101512.47;;;3.24;76.46
62248;BME280;48237;50.140;8.486;2023-02-11T01:58:54;101508.99;;;4.19;74.63
62248;BME280;48237;50.140;8.486;2023-02-11T02:01:25;101505.22;;;4.46;73.25
62248;BME280;48237;50.140;8.486;2023-02-11T02:04:00;101510.07;;;2.87;78.61
62248;BME280;48237;50.140;8.486;2023-02-11T02:06:31;101506.04;;;3.55;76.19
62248;BME280;48237;50.140;8.486;2023-02-11T02:09:03;101504.44;;;3.68;75.26
62248;BME280;48237;50.140;8.486;2023-02-11T02:11:31;101509.99;;;3.08;77.40
62248;BME280;48237;50.140;8.486;2023-02-11T02:13:59;101509.23;;;3.15;76.41
62248;BME280;48237;50.140;8.486;2023-02-11T02:16:29;101503.20;;;3.27;76.92
62248;BME280;48237;50.140;8.486;2023-02-11T02:19:14;101500.38;;;4.03;76.05
62248;BME280;48237;50.140;8.486;2023-02-11T02:22:45;101492.73;;;3.75;74.81
62248;BME280;48237;50.140;8.486;2023-02-11T02:25:35;101489.04;;;3.97;74.56
62248;BME280;48237;50.140;8.486;2023-02-11T02:28:22;101487.58;;;4.14;73.11
62248;BME280;48237;50.140;8.486;2023-02-11T02:31:31;101486.08;;;3.46;76.15
62248;BME280;48237;50.140;8.486;2023-02-11T02:34:10;101486.20;;;3.23;76.42
62248;BME280;48237;50.140;8.486;2023-02-11T02:36:46;101484.40;;;2.60;78.83
62248;BME280;48237;50.140;8.486;2023-02-11T02:39:19;101489.88;;;3.47;76.55
62248;BME280;48237;50.140;8.486;2023-02-11T02:41:50;101492.32;;;3.84;76.54
62248;BME280;48237;50.140;8.486;2023-02-11T02:44:19;101497.06;;;3.37;76.75
62248;BME280;48237;50.140;8.486;2023-02-11T02:46:46;101501.50;;;3.13;77.61
62248;BME280;48237;50.140;8.486;2023-02-11T02:49:15;101498.10;;;2.80;79.91
62248;BME280;48237;50.140;8.486;2023-02-11T02:51:59;101492.88;;;3.12;77.63
62248;BME280;48237;50.140;8.486;2023-02-11T02:55:43;101489.59;;;3.36;77.66
62248;BME280;48237;50.140;8.486;2023-02-11T02:58:29;101486.09;;;3.42;77.40
62248;BME280;48237;50.140;8.486;2023-02-11T03:01:08;101484.04;;;2.09;82.78
62248;BME280;48237;50.140;8.486;2023-02-11T03:03:47;101483.15;;;2.78;80.06
62248;BME280;48237;50.140;8.486;2023-02-11T03:06:24;101478.46;;;3.69;76.89
62248;BME280;48237;50.140;8.486;2023-02-11T03:09:02;101470.57;;;4.21;74.13
62248;BME280;48237;50.140;8.486;2023-02-11T03:11:33;101478.87;;;3.71;75.15
62248;BME280;48237;50.140;8.486;2023-02-11T03:14:04;101482.35;;;3.29;77.59
62248;BME280;48237;50.140;8.486;2023-02-11T03:16:33;101485.74;;;3.41;77.69
62248;BME280;48237;50.140;8.486;2023-02-11T03:19:05;101486.12;;;3.24;77.28
62248;BME280;48237;50.140;8.486;2023-02-11T03:21:35;101479.11;;;3.84;75.52
62248;BME280;48237;50.140;8.486;2023-02-11T03:24:07;101482.16;;;2.65;79.02
62248;BME280;48237;50.140;8.486;2023-02-11T03:26:41;101481.84;;;3.22;77.71
62248;BME280;48237;50.140;8.486;2023-02-11T03:29:12;101467.89;;;3.19;77.30
62248;BME280;48237;50.140;8.486;2023-02-11T03:31:49;101455.66;;;4.18;73.30
62248;BME280;48237;50.140;8.486;2023-02-11T03:36:35;101450.41;;;3.89;75.75
62248;BME280;48237;50.140;8.486;2023-02-11T03:39:04;101435.04;;;3.07;76.49
62248;BME280;48237;50.140;8.486;2023-02-11T03:41:34;101423.33;;;4.11;74.45
62248;BME280;48237;50.140;8.486;2023-02-11T03:44:03;101425.61;;;3.40;76.23
62248;BME280;48237;50.140;8.486;2023-02-11T03:46:33;101417.61;;;3.00;77.08
62248;BME280;48237;50.140;8.486;2023-02-11T03:49:05;101408.08;;;3.41;76.81
62248;BME280;48237;50.140;8.486;2023-02-11T03:51:36;101397.62;;;2.93;77.84
62248;BME280;48237;50.140;8.486;2023-02-11T03:54:08;101398.54;;;2.83;79.71
62248;BME280;48237;50.140;8.486;2023-02-11T03:56:40;101399.38;;;2.39;82.23
62248;BME280;48237;50.140;8.486;2023-02-11T03:59:08;101384.95;;;3.32;76.55
62248;BME280;48237;50.140;8.486;2023-02-11T04:01:35;101391.88;;;2.90;77.96
62248;BME280;48237;50.140;8.486;2023-02-11T04:04:04;101384.56;;;3.38;75.47
62248;BME280;48237;50.140;8.486;2023-02-11T04:06:31;101382.50;;;4.00;73.95
62248;BME280;48237;50.140;8.486;2023-02-11T04:08:58;101397.20;;;3.03;77.21
62248;BME280;48237;50.140;8.486;2023-02-11T04:11:26;101405.34;;;3.10;77.77
62248;BME280;48237;50.140;8.486;2023-02-11T04:13:53;101416.02;;;2.13;81.19
62248;BME280;48237;50.140;8.486;2023-02-11T04:16:20;101423.42;;;2.88;80.14
62248;BME280;48237;50.140;8.486;2023-02-11T04:18:47;101423.00;;;3.17;78.04
62248;BME280;48237;50.140;8.486;2023-02-11T04:21:14;101422.34;;;2.91;78.35
62248;BME280;48237;50.140;8.486;2023-02-11T04:23:42;101416.72;;;3.46;76.44
62248;BME280;48237;50.140;8.486;2023-02-11T04:26:09;101424.42;;;1.21;85.35
62248;BME280;48237;50.140;8.486;2023-02-11T04:28:37;101428.39;;;2.89;80.68
62248;BME280;48237;50.140;8.486;2023-02-11T04:31:05;101434.51;;;3.43;78.06
62248;BME280;48237;50.140;8.486;2023-02-11T04:33:32;101435.94;;;3.34;78.01
62248;BME280;48237;50.140;8.486;2023-02-11T04:35:59;101424.93;;;3.95;75.29
62248;BME280;48237;50.140;8.486;2023-02-11T04:38:27;101425.30;;;4.22;71.97
62248;BME280;48237;50.140;8.486;2023-02-11T04:40:54;101421.10;;;3.51;73.11
62248;BME280;48237;50.140;8.486;2023-02-11T04:43:21;101417.20;;;3.71;74.98
62248;BME280;48237;50.140;8.486;2023-02-11T04:45:49;101413.37;;;3.88;74.88
62248;BME280;48237;50.140;8.486;2023-02-11T04:48:16;101412.76;;;3.69;74.70
62248;BME280;48237;50.140;8.486;2023-02-11T04:50:43;101410.71;;;3.59;75.22
62248;BME280;48237;50.140;8.486;2023-02-11T04:53:10;101409.30;;;3.89;74.23
62248;BME280;48237;50.140;8.486;2023-02-11T04:55:37;101407.06;;;4.16;72.67
62248;BME280;48237;50.140;8.486;2023-02-11T04:58:04;101413.66;;;4.14;72.89
62248;BME280;48237;50.140;8.486;2023-02-11T05:00:31;101417.27;;;3.79;74.62
62248;BME280;48237;50.140;8.486;2023-02-11T05:02:58;101409.90;;;4.03;72.11
62248;BME280;48237;50.140;8.486;2023-02-11T05:05:25;101399.34;;;3.69;73.08
62248;BME280;48237;50.140;8.486;2023-02-11T05:07:53;101395.57;;;3.12;75.81
62248;BME280;48237;50.140;8.486;2023-02-11T05:10:20;101389.68;;;3.24;76.01
62248;BME280;48237;50.140;8.486;2023-02-11T05:12:48;101383.17;;;3.68;74.27
62248;BME280;48237;50.140;8.486;2023-02-11T05:15:15;101380.74;;;2.93;77.67
62248;BME280;48237;50.140;8.486;2023-02-11T05:17:43;101372.95;;;4.11;73.21
62248;BME280;48237;50.140;8.486;2023-02-11T05:20:10;101377.30;;;3.36;74.61
62248;BME280;48237;50.140;8.486;2023-02-11T05:22:37;101371.88;;;2.88;78.07
62248;BME280;48237;50.140;8.486;2023-02-11T05:25:05;101370.70;;;3.34;75.57
62248;BME280;48237;50.140;8.486;2023-02-11T05:27:32;101384.79;;;3.41;76.12
62248;BME280;48237;50.140;8.486;2023-02-11T05:29:59;101397.80;;;3.33;76.97
62248;BME280;48237;50.140;8.486;2023-02-11T05:32:26;101405.13;;;2.94;77.61
62248;BME280;48237;50.140;8.486;2023-02-11T05:34:54;101401.72;;;2.99;77.41
62248;BME280;48237;50.140;8.486;2023-02-11T05:37:20;101389.84;;;3.29;75.02
62248;BME280;48237;50.140;8.486;2023-02-11T05:39:48;101394.24;;;3.50;76.25
62248;BME280;48237;50.140;8.486;2023-02-11T05:42:15;101403.45;;;3.87;73.63
62248;BME280;48237;50.140;8.486;2023-02-11T05:44:42;101411.55;;;1.49;81.73
62248;BME280;48237;50.140;8.486;2023-02-11T05:47:10;101414.38;;;2.73;80.05
62248;BME280;48237;50.140;8.486;2023-02-11T05:49:38;101413.19;;;2.39;81.51
62248;BME280;48237;50.140;8.486;2023-02-11T05:52:05;101419.59;;;2.00;82.27
62248;BME280;48237;50.140;8.486;2023-02-11T05:54:32;101415.76;;;3.33;77.21
62248;BME280;48237;50.140;8.486;2023-02-11T05:56:59;101418.32;;;3.53;75.32
62248;BME280;48237;50.140;8.486;2023-02-11T05:59:26;101421.93;;;3.29;77.57
62248;BME280;48237;50.140;8.486;2023-02-11T06:01:54;101420.13;;;2.89;78.16
62248;BME280;48237;50.140;8.486;2023-02-11T06:04:21;101421.71;;;3.48;76.74
62248;BME280;48237;50.140;8.486;2023-02-11T06:06:48;101420.59;;;3.69;75.22
62248;BME280;48237;50.140;8.486;2023-02-11T06:09:15;101417.07;;;3.40;77.51
62248;BME280;48237;50.140;8.486;2023-02-11T06:11:42;101411.97;;;2.94;78.62
62248;BME280;48237;50.140;8.486;2023-02-11T06:14:09;101416.51;;;2.19;81.08
62248;BME280;48237;50.140;8.486;2023-02-11T06:16:37;101415.17;;;3.57;75.42
62248;BME280;48237;50.140;8.486;2023-02-11T06:19:04;101424.99;;;3.69;74.53
62248;BME280;48237;50.140;8.486;2023-02-11T06:21:31;101434.70;;;2.78;76.42
62248;BME280;48237;50.140;8.486;2023-02-11T06:23:58;101434.88;;;3.22;76.24
62248;BME280;48237;50.140;8.486;2023-02-11T06:26:25;101424.46;;;3.45;75.35
62248;BME280;48237;50.140;8.486;2023-02-11T06:28:52;101418.37;;;3.58;75.54
62248;BME280;48237;50.140;8.486;2023-02-11T06:31:19;101406.18;;;3.71;74.94
62248;BME280;48237;50.140;8.486;2023-02-11T06:33:46;101400.85;;;3.67;73.30
62248;BME280;48237;50.140;8.486;2023-02-11T06:36:15;101397.88;;;3.56;74.42
62248;BME280;48237;50.140;8.486;2023-02-11T06:38:44;101389.47;;;3.96;73.11
62248;BME280;48237;50.140;8.486;2023-02-11T06:41:12;101388.23;;;3.81;73.36
62248;BME280;48237;50.140;8.486;2023-02-11T06:43:40;101395.20;;;2.63;77.58
62248;BME280;48237;50.140;8.486;2023-02-11T06:46:08;101386.88;;;3.62;74.64
62248;BME280;48237;50.140;8.486;2023-02-11T06:48:35;101389.09;;;3.30;74.60
62248;BME280;48237;50.140;8.486;2023-02-11T06:51:04;101388.45;;;3.72;73.20
62248;BME280;48237;50.140;8.486;2023-02-11T06:53:34;101391.69;;;3.67;72.56
62248;BME280;48237;50.140;8.486;2023-02-11T06:56:02;101397.94;;;3.22;74.15
62248;BME280;48237;50.140;8.486;2023-02-11T06:58:30;101399.63;;;3.41;73.64
62248;BME280;48237;50.140;8.486;2023-02-11T07:00:58;101394.40;;;3.25;73.74
62248;BME280;48237;50.140;8.486;2023-02-11T07:03:25;101384.00;;;3.07;75.15
62248;BME280;48237;50.140;8.486;2023-02-11T07:05:52;101380.68;;;2.24;78.74
62248;BME280;48237;50.140;8.486;2023-02-11T07:08:20;101372.28;;;3.87;73.73
62248;BME280;48237;50.140;8.486;2023-02-11T07:10:47;101377.54;;;3.21;75.93
62248;BME280;48237;50.140;8.486;2023-02-11T07:13:14;101379.39;;;3.65;73.95
62248;BME280;48237;50.140;8.486;2023-02-11T07:15:41;101377.99;;;3.50;75.05
62248;BME280;48237;50.140;8.486;2023-02-11T07:18:09;101384.44;;;4.35;72.34
62248;BME280;48237;50.140;8.486;2023-02-11T07:20:36;101392.32;;;4.04;73.26
62248;BME280;48237;50.140;8.486;2023-02-11T07:23:03;101388.43;;;4.10;73.74
62248;BME280;48237;50.140;8.486;2023-02-11T07:25:31;101395.09;;;3.91;74.43
62248;BME280;48237;50.140;8.486;2023-02-11T07:27:58;101398.32;;;3.49;74.78
62248;BME280;48237;50.140;8.486;2023-02-11T07:30:25;101395.36;;;4.30;73.47
62248;BME280;48237;50.140;8.486;2023-02-11T07:32:52;101388.92;;;4.15;73.55
62248;BME280;48237;50.140;8.486;2023-02-11T07:35:20;101382.19;;;4.59;72.20
62248;BME280;48237;50.140;8.486;2023-02-11T07:37:47;101378.88;;;4.32;72.54
62248;BME280;48237;50.140;8.486;2023-02-11T07:40:15;101386.11;;;4.13;74.10
62248;BME280;48237;50.140;8.486;2023-02-11T07:42:42;101388.65;;;4.18;74.26
62248;BME280;48237;50.140;8.486;2023-02-11T07:45:09;101388.75;;;4.01;75.43
62248;BME280;48237;50.140;8.486;2023-02-11T07:47:37;101399.55;;;2.84;79.61
62248;BME280;48237;50.140;8.486;2023-02-11T07:50:05;101400.07;;;4.27;74.85
62248;BME280;48237;50.140;8.486;2023-02-11T07:52:32;101409.69;;;2.54;81.19
62248;BME280;48237;50.140;8.486;2023-02-11T07:55:00;101405.95;;;3.93;76.41
62248;BME280;48237;50.140;8.486;2023-02-11T07:57:26;101412.15;;;4.78;72.98
62248;BME280;48237;50.140;8.486;2023-02-11T07:59:54;101416.74;;;2.37;81.17
62248;BME280;48237;50.140;8.486;2023-02-11T08:02:21;101407.87;;;3.99;76.67
62248;BME280;48237;50.140;8.486;2023-02-11T08:04:49;101408.41;;;4.26;76.02
62248;BME280;48237;50.140;8.486;2023-02-11T08:07:16;101421.93;;;1.95;84.80
62248;BME280;48237;50.140;8.486;2023-02-11T08:09:43;101416.60;;;2.75;83.62
62248;BME280;48237;50.140;8.486;2023-02-11T08:12:11;101411.37;;;3.73;80.15
62248;BME280;48237;50.140;8.486;2023-02-11T08:14:38;101416.72;;;4.19;77.14
62248;BME280;48237;50.140;8.486;2023-02-11T08:17:05;101418.34;;;4.69;73.54
62248;BME280;48237;50.140;8.486;2023-02-11T08:19:32;101419.60;;;3.68;77.75
62248;BME280;48237;50.140;8.486;2023-02-11T08:21:59;101423.47;;;4.32;76.89
62248;BME280;48237;50.140;8.486;2023-02-11T08:24:27;101429.25;;;4.86;74.08
62248;BME280;48237;50.140;8.486;2023-02-11T08:26:54;101432.87;;;3.86;77.87
62248;BME280;48237;50.140;8.486;2023-02-11T08:29:22;101435.23;;;5.00;75.16
62248;BME280;48237;50.140;8.486;2023-02-11T08:31:49;101437.64;;;4.98;74.94
62248;BME280;48237;50.140;8.486;2023-02-11T08:34:16;101446.00;;;4.62;74.88
62248;BME280;48237;50.140;8.486;2023-02-11T08:36:45;101450.62;;;3.25;82.22
62248;BME280;48237;50.140;8.486;2023-02-11T08:39:14;101460.63;;;2.28;83.62
62248;BME280;48237;50.140;8.486;2023-02-11T08:41:42;101467.47;;;3.14;82.90
62248;BME280;48237;50.140;8.486;2023-02-11T08:44:09;101461.71;;;2.58;84.75
62248;BME280;48237;50.140;8.486;2023-02-11T08:46:36;101463.53;;;3.00;83.44
62248;BME280;48237;50.140;8.486;2023-02-11T08:49:04;101460.57;;;2.77;84.17
62248;BME280;48237;50.140;8.486;2023-02-11T08:51:32;101464.06;;;3.03;83.77
62248;BME280;48237;50.140;8.486;2023-02-11T08:54:00;101460.93;;;4.58;76.72
62248;BME280;48237;50.140;8.486;2023-02-11T08:56:28;101461.42;;;4.24;79.50
62248;BME280;48237;50.140;8.486;2023-02-11T08:58:55;101473.73;;;2.00;87.92
62248;BME280;48237;50.140;8.486;2023-02-11T09:01:24;101473.66;;;1.06;94.07
62248;BME280;48237;50.140;8.486;2023-02-11T09:03:52;101472.27;;;2.61;87.44
62248;BME280;48237;50.140;8.486;2023-02-11T09:06:20;101479.57;;;2.27;87.12
62248;BME280;48237;50.140;8.486;2023-02-11T09:08:49;101477.57;;;3.51;82.70
62248;BME280;48237;50.140;8.486;2023-02-11T09:11:18;101479.10;;;1.93;87.33
62248;BME280;48237;50.140;8.486;2023-02-11T09:13:45;101485.68;;;1.67;91.32
62248;BME280;48237;50.140;8.486;2023-02-11T09:16:16;101489.93;;;1.22;97.02
62248;BME280;48237;50.140;8.486;2023-02-11T09:18:44;101491.55;;;2.36;89.39
62248;BME280;48237;50.140;8.486;2023-02-11T09:21:13;101492.50;;;2.53;87.52
62248;BME280;48237;50.140;8.486;2023-02-11T09:23:40;101496.51;;;1.06;97.12
62248;BME280;48237;50.140;8.486;2023-02-11T09:26:11;101499.29;;;1.02;100.00
62248;BME280;48237;50.140;8.486;2023-02-11T09:28:39;101501.45;;;1.23;100.00
62248;BME280;48237;50.140;8.486;2023-02-11T09:31:08;101510.42;;;0.68;100.00
62248;BME280;48237;50.140;8.486;2023-02-11T09:33:38;101511.89;;;0.74;100.00
62248;BME280;48237;50.140;8.486;2023-02-11T09:36:06;101511.23;;;0.49;100.00
62248;BME280;48237;50.140;8.486;2023-02-11T09:38:33;101513.03;;;1.40;100.00
62248;BME280;48237;50.140;8.486;2023-02-11T09:41:01;101509.60;;;0.05;100.00
62248;BME280;48237;50.140;8.486;2023-02-11T09:43:34;101513.29;;;0.56;100.00
62248;BME280;48237;50.140;8.486;2023-02-11T09:46:03;101510.86;;;2.26;98.83
62248;BME280;48237;50.140;8.486;2023-02-11T09:48:38;101517.50;;;3.77;87.72
62248;BME280;48237;50.140;8.486;2023-02-11T09:51:20;101518.69;;;2.86;89.93
62248;BME280;48237;50.140;8.486;2023-02-11T09:53:55;101520.98;;;3.90;84.82
62248;BME280;48237;50.140;8.486;2023-02-11T09:56:24;101510.79;;;4.28;81.76
62248;BME280;48237;50.140;8.486;2023-02-11T09:58:52;101508.13;;;4.15;81.30
62248;BME280;48237;50.140;8.486;2023-02-11T10:01:29;101505.04;;;4.38;79.39
62248;BME280;48237;50.140;8.486;2023-02-11T10:04:03;101505.50;;;5.67;75.67
62248;BME280;48237;50.140;8.486;2023-02-11T10:06:38;101511.64;;;4.50;78.27
62248;BME280;48237;50.140;8.486;2023-02-11T10:09:20;101525.59;;;3.38;82.25
62248;BME280;48237;50.140;8.486;2023-02-11T10:11:57;101518.39;;;5.46;77.21
62248;BME280;48237;50.140;8.486;2023-02-11T10:14:43;101512.39;;;6.15;72.07
62248;BME280;48237;50.140;8.486;2023-02-11T10:17:21;101511.15;;;5.87;74.48
62248;BME280;48237;50.140;8.486;2023-02-11T10:20:03;101508.55;;;5.66;73.33
62248;BME280;48237;50.140;8.486;2023-02-11T10:22:38;101509.51;;;5.54;74.74
62248;BME280;48237;50.140;8.486;2023-02-11T10:25:19;101508.72;;;5.78;75.19
62248;BME280;48237;50.140;8.486;2023-02-11T10:27:47;101508.47;;;6.06;71.96
62248;BME280;48237;50.140;8.486;2023-02-11T10:30:21;101503.53;;;5.98;72.84
62248;BME280;48237;50.140;8.486;2023-02-11T10:32:52;101500.76;;;7.10;70.38
62248;BME280;48237;50.140;8.486;2023-02-11T10:35:22;101504.76;;;7.63;67.24
62248;BME280;48237;50.140;8.486;2023-02-11T10:37:50;101510.60;;;6.42;71.55
62248;BME280;48237;50.140;8.486;2023-02-11T10:40:19;101511.70;;;7.86;66.53
62248;BME280;48237;50.140;8.486;2023-02-11T10:42:49;101512.46;;;6.59;69.96
62248;BME280;48237;50.140;8.486;2023-02-11T10:45:21;101517.94;;;7.29;68.73
62248;BME280;48237;50.140;8.486;2023-02-11T10:47:49;101513.47;;;7.60;68.79
62248;BME280;48237;50.140;8.486;2023-02-11T10:50:21;101509.59;;;7.79;67.72
62248;BME280;48237;50.140;8.486;2023-02-11T10:52:49;101503.18;;;7.79;68.24
62248;BME280;48237;50.140;8.486;2023-02-11T10:55:18;101503.69;;;7.86;68.40
62248;BME280;48237;50.140;8.486;2023-02-11T10:57:52;101501.72;;;7.63;69.94
62248;BME280;48237;50.140;8.486;2023-02-11T11:00:32;101500.10;;;7.52;70.78
62248;BME280;48237;50.140;8.486;2023-02-11T11:03:01;101494.32;;;7.48;71.41
62248;BME280;48237;50.140;8.486;2023-02-11T11:05:33;101486.73;;;7.19;73.19
62248;BME280;48237;50.140;8.486;2023-02-11T11:08:04;101479.93;;;7.74;71.03
62248;BME280;48237;50.140;8.486;2023-02-11T11:10:38;101479.28;;;7.66;71.49
62248;BME280;48237;50.140;8.486;2023-02-11T11:13:23;101477.29;;;7.39;71.04
62248;BME280;48237;50.140;8.486;2023-02-11T11:16:13;101473.59;;;7.72;71.80
62248;BME280;48237;50.140;8.486;2023-02-11T11:18:43;101485.03;;;7.69;72.49
62248;BME280;48237;50.140;8.486;2023-02-11T11:21:13;101486.18;;;8.42;68.00
62248;BME280;48237;50.140;8.486;2023-02-11T11:23:48;101490.55;;;7.62;71.54
62248;BME280;48237;50.140;8.486;2023-02-11T11:26:17;101482.40;;;8.77;67.76
62248;BME280;48237;50.140;8.486;2023-02-11T11:28:53;101491.42;;;8.05;69.71
62248;BME280;48237;50.140;8.486;2023-02-11T11:31:24;101491.49;;;8.94;66.28
62248;BME280;48237;50.140;8.486;2023-02-11T11:33:54;101493.69;;;8.96;66.86
62248;BME280;48237;50.140;8.486;2023-02-11T11:36:32;101491.18;;;8.51;67.75
62248;BME280;48237;50.140;8.486;2023-02-11T11:39:02;101499.04;;;6.41;74.22
62248;BME280;48237;50.140;8.486;2023-02-11T11:41:49;101504.08;;;6.42;72.64
62248;BME280;48237;50.140;8.486;2023-02-11T11:44:23;101509.12;;;8.33;67.87
62248;BME280;48237;50.140;8.486;2023-02-11T11:47:14;101509.02;;;8.61;66.99
62248;BME280;48237;50.140;8.486;2023-02-11T11:49:49;101495.71;;;8.69;66.24
62248;BME280;48237;50.140;8.486;2023-02-11T11:52:31;101491.53;;;9.32;64.04
62248;BME280;48237;50.140;8.486;2023-02-11T11:55:05;101482.92;;;9.93;62.46
62248;BME280;48237;50.140;8.486;2023-02-11T11:57:37;101482.41;;;8.31;66.22
62248;BME280;48237;50.140;8.486;2023-02-11T12:00:14;101477.38;;;8.44;66.51
62248;BME280;48237;50.140;8.486;2023-02-11T12:05:26;101474.98;;;9.54;66.25
62248;BME280;48237;50.140;8.486;2023-02-11T12:08:06;101474.18;;;9.12;64.85
62248;BME280;48237;50.140;8.486;2023-02-11T12:10:48;101475.22;;;8.91;67.91
62248;BME280;48237;50.140;8.486;2023-02-11T12:13:27;101474.47;;;8.52;68.17
62248;BME280;48237;50.140;8.486;2023-02-11T12:16:05;101467.10;;;9.18;66.02
62248;BME280;48237;50.140;8.486;2023-02-11T12:18:59;101463.70;;;9.60;66.63
62248;BME280;48237;50.140;8.486;2023-02-11T12:21:35;101458.39;;;8.28;68.61
62248;BME280;48237;50.140;8.486;2023-02-11T12:24:20;101459.78;;;8.06;70.13
62248;BME280;48237;50.140;8.486;2023-02-11T12:26:55;101465.51;;;9.26;65.98
62248;BME280;48237;50.140;8.486;2023-02-11T12:29:33;101467.63;;;9.05;67.75
62248;BME280;48237;50.140;8.486;2023-02-11T12:32:15;101473.04;;;8.98;68.19
62248;BME280;48237;50.140;8.486;2023-02-11T12:35:11;101482.68;;;7.94;71.72
62248;BME280;48237;50.140;8.486;2023-02-11T12:37:54;101473.84;;;8.24;70.29
62248;BME280;48237;50.140;8.486;2023-02-11T12:40:31;101468.55;;;8.65;69.70
62248;BME280;48237;50.140;8.486;2023-02-11T12:43:11;101468.54;;;8.58;70.93
62248;BME280;48237;50.140;8.486;2023-02-11T12:45:53;101465.77;;;8.70;68.27
62248;BME280;48237;50.140;8.486;2023-02-11T12:48:37;101464.60;;;9.07;68.33
62248;BME280;48237;50.140;8.486;2023-02-11T12:51:15;101459.36;;;9.07;67.49
62248;BME280;48237;50.140;8.486;2023-02-11T12:54:01;101457.93;;;9.22;67.11
62248;BME280;48237;50.140;8.486;2023-02-11T12:56:38;101454.12;;;9.28;67.43
62248;BME280;48237;50.140;8.486;2023-02-11T12:59:19;101459.42;;;8.40;69.94
62248;BME280;48237;50.140;8.486;2023-02-11T13:01:55;101457.57;;;9.16;67.65
62248;BME280;48237;50.140;8.486;2023-02-11T13:04:31;101460.85;;;7.70;73.00
62248;BME280;48237;50.140;8.486;2023-02-11T13:07:03;101459.79;;;7.56;72.60
62248;BME280;48237;50.140;8.486;2023-02-11T13:09:42;101447.40;;;9.30;67.98
62248;BME280;48237;50.140;8.486;2023-02-11T13:12:13;101445.18;;;9.22;67.91
62248;BME280;48237;50.140;8.486;2023-02-11T13:14:41;101442.17;;;9.56;67.21
62248;BME280;48237;50.140;8.486;2023-02-11T13:17:15;101439.99;;;8.81;69.96
62248;BME280;48237;50.140;8.486;2023-02-11T13:19:49;101439.10;;;8.39;69.94
62248;BME280;48237;50.140;8.486;2023-02-11T13:22:22;101440.38;;;8.71;70.71
62248;BME280;48237;50.140;8.486;2023-02-11T13:24:55;101440.83;;;9.61;67.44